Time;durP1;ratioP1;P1;durP2;ratioP2;P2;SDS_P1;SDS_P2;PMS_P1;PMS_P2;Temp;Humidity;BMP_temperature;BMP_pressure;BME280_temperature;BME280_humidity;BME280_pressure;Samples;Min_cycle;Max_cycle;Signal;HPM_P1;HPM_P2
2022/11/12 00:01:34;;;;;;;;;;;;;;;;;;5028448;28;19928;-60
2022/11/12 00:04:18;;;;;;;;;;;;;;;;;;5030959;28;20020;-61
2022/11/12 00:07:02;;;;;;;;;;;;;;;;;;5032230;28;19924;-60
2022/11/12 00:09:46;;;;;;;;;;;;;;;;;;5029662;28;19952;-60
2022/11/12 00:12:30;;;;;;;;;;;;;;;;;;5027025;28;19932;-61
2022/11/12 00:15:14;;;;;;;;;;;;;;;;;;5025093;28;19936;-60
2022/11/12 00:17:58;;;;;;;;;;;;;;;;;;5027539;28;20020;-60
2022/11/12 00:20:42;;;;;;;;;;;;;;;;;;5027060;28;20047;-60
2022/11/12 00:23:26;;;;;;;;;;;;;;;;;;5025259;28;20785;-60
2022/11/12 00:26:10;;;;;;;;;;;;;;;;;;5027751;28;19920;-61
2022/11/12 00:28:54;;;;;;;;;;;;;;;;;;5027009;28;19933;-59
2022/11/12 00:31:38;;;;;;;;;;;;;;;;;;5026741;28;19998;-60
2022/11/12 00:34:22;;;;;;;;;;;;;;;;;;5027315;28;19963;-60
2022/11/12 00:37:06;;;;;;;;;;;;;;;;;;5029016;28;19944;-60
2022/11/12 00:39:50;;;;;;;;;;;;;;;;;;5029952;28;19924;-61
2022/11/12 00:42:34;;;;;;;;;;;;;;;;;;5025858;28;19979;-60
2022/11/12 00:45:18;;;;;;;;;;;;;;;;;;5026078;28;20704;-60
2022/11/12 00:48:02;;;;;;;;;;;;;;;;;;5026697;28;19924;-60
2022/11/12 00:50:46;;;;;;;;;;;;;;;;;;5029994;28;19939;-60
2022/11/12 00:53:30;;;;;;;;;;;;;;;;;;5024973;28;19966;-60
2022/11/12 00:56:14;;;;;;;;;;;;;;;;;;5028624;28;19923;-60
2022/11/12 00:58:58;;;;;;;;;;;;;;;;;;5025647;28;20012;-60
2022/11/12 01:01:42;;;;;;;;;;;;;;;;;;5029301;28;19924;-60
2022/11/12 01:04:26;;;;;;;;;;;;;;;;;;5027009;28;20015;-59
2022/11/12 01:07:10;;;;;;;;;;;;;;;;;;5032556;28;19923;-61
2022/11/12 01:09:54;;;;;;;;;;;;;;;;;;5031965;28;19924;-59
2022/11/12 01:12:38;;;;;;;;;;;;;;;;;;5028540;28;19928;-59
2022/11/12 01:15:22;;;;;;;;;;;;;;;;;;5033198;28;19992;-60
2022/11/12 01:18:06;;;;;;;;;;;;;;;;;;5029723;28;19963;-60
2022/11/12 01:20:50;;;;;;;;;;;;;;;;;;5032921;28;19927;-61
2022/11/12 01:23:34;;;;;;;;;;;;;;;;;;5032498;28;19946;-60
2022/11/12 01:26:18;;;;;;;;;;;;;;;;;;5031761;28;19944;-60
2022/11/12 01:29:02;;;;;;;;;;;;;;;;;;5032797;28;20475;-59
2022/11/12 01:31:46;;;;;;;;;;;;;;;;;;5033539;28;19924;-60
2022/11/12 01:34:30;;;;;;;;;;;;;;;;;;5029355;28;19919;-60
2022/11/12 01:37:14;;;;;;;;;;;;;;;;;;5032503;28;20327;-60
2022/11/12 01:39:58;;;;;;;;;;;;;;;;;;5028920;28;19936;-60
2022/11/12 01:42:42;;;;;;;;;;;;;;;;;;5030678;28;20262;-60
2022/11/12 01:45:26;;;;;;;;;;;;;;;;;;5032596;28;19924;-60
2022/11/12 01:48:10;;;;;;;;;;;;;;;;;;5030458;28;19924;-60
2022/11/12 01:50:54;;;;;;;;;;;;;;;;;;5033034;28;19924;-61
2022/11/12 01:53:38;;;;;;;;;;;;;;;;;;5031562;28;19928;-60
2022/11/12 01:56:22;;;;;;;;;;;;;;;;;;5036178;28;19939;-61
2022/11/12 01:59:06;;;;;;;;;;;;;;;;;;5032626;28;19927;-60
2022/11/12 02:01:50;;;;;;;;;;;;;;;;;;5033040;28;19934;-59
2022/11/12 02:04:34;;;;;;;;;;;;;;;;;;5030744;28;20010;-60
2022/11/12 02:07:18;;;;;;;;;;;;;;;;;;5028982;28;19924;-60
2022/11/12 02:10:02;;;;;;;;;;;;;;;;;;5028791;28;19924;-61
2022/11/12 02:15:49;;;;;;;;;;;;;;;;;;5030013;28;20059;-59
2022/11/12 02:18:33;;;;;;;;;;;;;;;;;;5033033;28;19927;-60
2022/11/12 02:21:17;;;;;;;;;;;;;;;;;;5031415;28;19971;-60
2022/11/12 02:24:01;;;;;;;;;;;;;;;;;;5027180;28;19966;-60
2022/11/12 02:26:45;;;;;;;;;;;;;;;;;;5032671;28;19924;-60
2022/11/12 02:29:29;;;;;;;;;;;;;;;;;;5032676;28;19975;-60
2022/11/12 02:32:13;;;;;;;;;;;;;;;;;;5028621;28;19968;-61
2022/11/12 02:34:57;;;;;;;;;;;;;;;;;;5028064;28;19941;-61
2022/11/12 02:37:41;;;;;;;;;;;;;;;;;;5035039;28;20300;-60
2022/11/12 02:40:25;;;;;;;;;;;;;;;;;;5029319;28;19929;-61
2022/11/12 02:43:09;;;;;;;;;;;;;;;;;;5027816;28;19928;-61
2022/11/12 02:45:53;;;;;;;;;;;;;;;;;;5032599;28;19923;-61
2022/11/12 02:48:37;;;;;;;;;;;;;;;;;;5029680;28;19927;-60
2022/11/12 02:51:21;;;;;;;;;;;;;;;;;;5028750;28;19924;-60
2022/11/12 02:54:05;;;;;;;;;;;;;;;;;;5028957;28;19960;-60
2022/11/12 02:56:49;;;;;;;;;;;;;;;;;;5029816;28;20031;-60
2022/11/12 02:59:33;;;;;;;;;;;;;;;;;;5032065;28;20827;-60
2022/11/12 03:02:17;;;;;;;;;;;;;;;;;;5030177;28;19962;-60
2022/11/12 03:05:01;;;;;;;;;;;;;;;;;;5029322;28;19920;-60
2022/11/12 03:07:45;;;;;;;;;;;;;;;;;;5031195;28;19967;-60
2022/11/12 03:10:29;;;;;;;;;;;;;;;;;;5030575;28;19924;-60
2022/11/12 03:13:13;;;;;;;;;;;;;;;;;;5028573;28;20006;-60
2022/11/12 03:15:57;;;;;;;;;;;;;;;;;;5028333;28;19920;-60
2022/11/12 03:18:41;;;;;;;;;;;;;;;;;;5027911;28;20007;-60
2022/11/12 03:21:25;;;;;;;;;;;;;;;;;;5028753;28;19955;-60
2022/11/12 03:24:09;;;;;;;;;;;;;;;;;;5030032;28;19928;-60
2022/11/12 03:26:52;;;;;;;;;;;;;;;;;;5033053;28;19960;-60
2022/11/12 03:29:36;;;;;;;;;;;;;;;;;;5030625;28;20110;-60
2022/11/12 03:32:20;;;;;;;;;;;;;;;;;;5026899;28;19924;-60
2022/11/12 03:35:04;;;;;;;;;;;;;;;;;;5027795;28;20284;-60
2022/11/12 03:37:48;;;;;;;;;;;;;;;;;;5029022;28;19995;-60
2022/11/12 03:40:32;;;;;;;;;;;;;;;;;;5027435;28;19927;-60
2022/11/12 03:43:16;;;;;;;;;;;;;;;;;;5029370;28;20059;-60
2022/11/12 03:46:00;;;;;;;;;;;;;;;;;;5027931;28;19928;-60
2022/11/12 03:48:44;;;;;;;;;;;;;;;;;;5030035;28;19982;-60
2022/11/12 03:51:28;;;;;;;;;;;;;;;;;;5027258;28;20176;-61
2022/11/12 03:54:12;;;;;;;;;;;;;;;;;;5030349;28;20022;-59
2022/11/12 03:56:56;;;;;;;;;;;;;;;;;;5031316;28;19978;-60
2022/11/12 03:59:40;;;;;;;;;;;;;;;;;;5027868;28;20783;-61
2022/11/12 04:02:25;;;;;;;;;;;;;;;;;;5029280;28;19976;-61
2022/11/12 04:11:15;;;;;;;;;;;;;;;;;;5029212;28;20014;-60
2022/11/12 04:13:59;;;;;;;;;;;;;;;;;;5029405;28;20353;-60
2022/11/12 04:22:49;;;;;;;;;;;;;;;;;;5027941;28;19974;-61
2022/11/12 04:28:36;;;;;;;;;;;;;;;;;;5033046;28;19982;-60
2022/11/12 04:31:20;;;;;;;;;;;;;;;;;;5031951;28;19924;-60
2022/11/12 04:37:07;;;;;;;;;;;;;;;;;;5030588;28;19924;-60
2022/11/12 04:39:51;;;;;;;;;;;;;;;;;;5029998;28;19959;-60
2022/11/12 04:45:38;;;;;;;;;;;;;;;;;;5030111;28;20020;-60
2022/11/12 04:48:22;;;;;;;;;;;;;;;;;;5027676;28;19970;-60
2022/11/12 04:52:03;;;;;;;;;;;;;;;;;;5030896;28;19923;-60
2022/11/12 04:54:10;;;;;;;;;;;;;;;;;;5028465;28;20312;-61
2022/11/12 04:56:54;;;;;;;;;;;;;;;;;;5027108;28;19952;-60
2022/11/12 04:59:38;;;;;;;;;;;;;;;;;;5027166;28;20031;-60
2022/11/12 05:02:22;;;;;;;;;;;;;;;;;;5027492;28;20344;-60
2022/11/12 05:05:06;;;;;;;;;;;;;;;;;;5028985;28;19964;-60
2022/11/12 05:07:50;;;;;;;;;;;;;;;;;;5026415;28;20130;-61
2022/11/12 05:10:34;;;;;;;;;;;;;;;;;;5028805;28;20008;-60
2022/11/12 05:13:18;;;;;;;;;;;;;;;;;;5026088;28;20471;-61
2022/11/12 05:16:02;;;;;;;;;;;;;;;;;;5028976;28;20348;-60
2022/11/12 05:18:46;;;;;;;;;;;;;;;;;;5028392;28;19928;-60
2022/11/12 05:24:33;;;;;;;;;;;;;;;;;;5030094;28;20011;-60
2022/11/12 05:27:17;;;;;;;;;;;;;;;;;;5027101;28;19975;-60
2022/11/12 05:30:01;;;;;;;;;;;;;;;;;;5026048;28;19931;-60
2022/11/12 05:32:45;;;;;;;;;;;;;;;;;;5022490;28;20475;-60
2022/11/12 05:35:29;;;;;;;;;;;;;;;;;;5026456;28;19924;-60
2022/11/12 05:38:12;;;;;;;;;;;;;;;;;;5028915;28;19932;-61
2022/11/12 05:40:57;;;;;;;;;;;;;;;;;;5031304;28;20424;-60
2022/11/12 05:43:40;;;;;;;;;;;;;;;;;;5030681;28;19924;-60
2022/11/12 05:46:24;;;;;;;;;;;;;;;;;;5029725;28;20629;-60
2022/11/12 05:49:08;;;;;;;;;;;;;;;;;;5030576;28;19959;-61
2022/11/12 05:51:52;;;;;;;;;;;;;;;;;;5032343;28;19950;-60
2022/11/12 05:54:36;;;;;;;;;;;;;;;;;;5029313;28;19952;-61
2022/11/12 05:57:20;;;;;;;;;;;;;;;;;;5029242;28;19991;-61
2022/11/12 06:00:04;;;;;;;;;;;;;;;;;;5032613;28;20637;-60
2022/11/12 06:02:48;;;;;;;;;;;;;;;;;;5028562;28;20009;-60
2022/11/12 06:05:32;;;;;;;;;;;;;;;;;;5030063;28;19967;-60
2022/11/12 06:08:16;;;;;;;;;;;;;;;;;;5028152;28;19971;-60
2022/11/12 06:11:00;;;;;;;;;;;;;;;;;;5030449;28;20011;-60
2022/11/12 06:13:44;;;;;;;;;;;;;;;;;;5030749;28;19960;-60
2022/11/12 06:16:28;;;;;;;;;;;;;;;;;;5033810;28;19971;-60
2022/11/12 06:19:12;;;;;;;;;;;;;;;;;;5030840;28;19928;-60
2022/11/12 06:21:56;;;;;;;;;;;;;;;;;;5030097;28;19927;-60
2022/11/12 06:24:40;;;;;;;;;;;;;;;;;;5030181;28;19927;-60
2022/11/12 06:27:23;;;;;;;;;;;;;;;;;;5026058;28;20396;-60
2022/11/12 06:30:07;;;;;;;;;;;;;;;;;;5031406;28;19924;-60
2022/11/12 06:32:51;;;;;;;;;;;;;;;;;;5032727;28;20582;-59
2022/11/12 06:35:35;;;;;;;;;;;;;;;;;;5031956;28;19924;-60
2022/11/12 06:38:19;;;;;;;;;;;;;;;;;;5028584;28;20063;-61
2022/11/12 06:41:04;;;;;;;;;;;;;;;;;;5031535;28;19995;-60
2022/11/12 06:43:48;;;;;;;;;;;;;;;;;;5030216;28;19924;-60
2022/11/12 06:46:32;;;;;;;;;;;;;;;;;;5026578;28;19924;-60
2022/11/12 06:49:16;;;;;;;;;;;;;;;;;;5029259;28;19924;-60
2022/11/12 06:52:00;;;;;;;;;;;;;;;;;;5030441;28;19928;-60
2022/11/12 06:54:43;;;;;;;;;;;;;;;;;;5030736;28;19938;-60
2022/11/12 06:57:28;;;;;;;;;;;;;;;;;;5031029;28;19975;-60
2022/11/12 07:00:12;;;;;;;;;;;;;;;;;;5028278;28;20001;-60
2022/11/12 07:02:56;;;;;;;;;;;;;;;;;;5029757;28;19959;-60
2022/11/12 07:05:39;;;;;;;;;;;;;;;;;;5030661;28;19928;-60
2022/11/12 07:08:24;;;;;;;;;;;;;;;;;;5030193;28;19925;-60
2022/11/12 07:11:08;;;;;;;;;;;;;;;;;;5029215;28;19923;-61
2022/11/12 07:13:52;;;;;;;;;;;;;;;;;;5026877;28;19975;-60
2022/11/12 07:16:36;;;;;;;;;;;;;;;;;;5027622;28;19924;-60
2022/11/12 07:19:20;;;;;;;;;;;;;;;;;;5026859;28;19959;-61
2022/11/12 07:22:04;;;;;;;;;;;;;;;;;;5026760;28;20761;-61
2022/11/12 07:24:48;;;;;;;;;;;;;;;;;;5028012;28;19924;-60
2022/11/12 07:27:32;;;;;;;;;;;;;;;;;;5033958;28;20308;-60
2022/11/12 07:30:16;;;;;;;;;;;;;;;;;;5029931;28;19924;-60
2022/11/12 07:32:59;;;;;;;;;;;;;;;;;;5029200;28;19928;-60
2022/11/12 07:35:44;;;;;;;;;;;;;;;;;;5029601;28;19924;-59
2022/11/12 07:38:28;;;;;;;;;;;;;;;;;;5029017;28;19970;-58
2022/11/12 07:41:13;;;;;;;;;;;;;;;;;;5030297;28;20436;-60
2022/11/12 07:43:56;;;;;;;;;;;;;;;;;;5031744;28;20285;-60
2022/11/12 07:46:40;;;;;;;;;;;;;;;;;;5030919;28;20055;-60
2022/11/12 07:49:24;;;;;;;;;;;;;;;;;;5033502;28;19928;-59
2022/11/12 07:52:08;;;;;;;;;;;;;;;;;;5030282;28;19967;-60
2022/11/12 07:54:52;;;;;;;;;;;;;;;;;;5023302;28;19928;-60
2022/11/12 07:57:36;;;;;;;;;;;;;;;;;;5026758;28;20021;-60
2022/11/12 08:00:20;;;;;;;;;;;;;;;;;;5029670;28;19970;-60
2022/11/12 08:03:04;;;;;;;;;;;;;;;;;;5025318;28;19924;-60
2022/11/12 08:05:49;;;;;;;;;;;;;;;;;;5029689;28;19924;-61
2022/11/12 08:08:33;;;;;;;;;;;;;;;;;;5028088;28;19920;-60
2022/11/12 08:11:17;;;;;;;;;;;;;;;;;;5030398;28;19923;-61
2022/11/12 08:14:01;;;;;;;;;;;;;;;;;;5031200;28;19928;-61
2022/11/12 08:16:45;;;;;;;;;;;;;;;;;;5025648;28;19937;-60
2022/11/12 08:19:29;;;;;;;;;;;;;;;;;;5028260;28;19991;-60
2022/11/12 08:22:14;;;;;;;;;;;;;;;;;;5026580;28;19925;-60
2022/11/12 08:24:57;;;;;;;;;;;;;;;;;;5027127;28;20039;-60
2022/11/12 08:27:41;;;;;;;;;;;;;;;;;;5027054;28;19920;-60
2022/11/12 08:30:25;;;;;;;;;;;;;;;;;;5028573;28;20013;-60
2022/11/12 08:33:09;;;;;;;;;;;;;;;;;;5027947;28;19999;-60
2022/11/12 08:35:53;;;;;;;;;;;;;;;;;;5020172;28;19928;-59
2022/11/12 08:38:38;;;;;;;;;;;;;;;;;;5039991;28;19971;-60
2022/11/12 08:41:21;;;;;;;;;;;;;;;;;;5024958;28;19932;-60
2022/11/12 08:44:05;;;;;;;;;;;;;;;;;;5024192;28;20784;-60
2022/11/12 08:46:49;;;;;;;;;;;;;;;;;;5025929;28;20027;-60
2022/11/12 08:49:33;;;;;;;;;;;;;;;;;;5028253;28;21583;-60
2022/11/12 08:52:17;;;;;;;;;;;;;;;;;;5023597;28;19967;-61
2022/11/12 08:55:01;;;;;;;;;;;;;;;;;;5026199;28;20035;-61
2022/11/12 08:57:45;;;;;;;;;;;;;;;;;;5026273;28;20095;-60
2022/11/12 09:00:29;;;;;;;;;;;;;;;;;;5029922;28;19928;-60
2022/11/12 09:03:13;;;;;;;;;;;;;;;;;;5024875;28;20020;-60
2022/11/12 09:05:57;;;;;;;;;;;;;;;;;;5027056;28;19978;-59
2022/11/12 09:08:41;;;;;;;;;;;;;;;;;;5026726;28;20372;-59
2022/11/12 09:11:25;;;;;;;;;;;;;;;;;;5027564;28;20393;-59
2022/11/12 09:14:09;;;;;;;;;;;;;;;;;;5030474;28;19924;-59
2022/11/12 09:16:53;;;;;;;;;;;;;;;;;;5029249;28;19970;-60
2022/11/12 09:19:37;;;;;;;;;;;;;;;;;;5031928;28;19927;-58
2022/11/12 09:22:21;;;;;;;;;;;;;;;;;;5031397;28;19928;-59
2022/11/12 09:25:05;;;;;;;;;;;;;;;;;;5033986;28;19924;-59
2022/11/12 09:27:49;;;;;;;;;;;;;;;;;;5033049;28;19924;-59
2022/11/12 09:30:33;;;;;;;;;;;;;;;;;;5033152;28;19924;-60
2022/11/12 09:33:17;;;;;;;;;;;;;;;;;;5030637;28;19928;-59
2022/11/12 09:36:01;;;;;;;;;;;;;;;;;;5031961;28;19927;-59
2022/11/12 09:38:45;;;;;;;;;;;;;;;;;;5029349;28;19948;-60
2022/11/12 09:41:29;;;;;;;;;;;;;;;;;;5035659;28;19983;-59
2022/11/12 09:44:13;;;;;;;;;;;;;;;;;;5032107;28;19928;-59
2022/11/12 09:46:57;;;;;;;;;;;;;;;;;;5032521;28;19924;-59
2022/11/12 09:49:41;;;;;;;;;;;;;;;;;;5032951;28;19923;-60
2022/11/12 09:52:25;;;;;;;;;;;;;;;;;;5031658;28;19921;-60
2022/11/12 09:55:09;;;;;;;;;;;;;;;;;;5035382;28;20348;-60
2022/11/12 09:57:53;;;;;;;;;;;;;;;;;;5031439;28;19947;-59
2022/11/12 10:00:37;;;;;;;;;;;;;;;;;;5029176;28;19964;-60
2022/11/12 10:03:21;;;;;;;;;;;;;;;;;;5031515;28;20096;-60
2022/11/12 10:06:05;;;;;;;;;;;;;;;;;;5032648;28;20600;-60
2022/11/12 10:08:50;;;;;;;;;;;;;;;;;;5031592;28;19984;-60
2022/11/12 10:12:30;;;;;;;;;;;;;;;;;;5029932;28;19983;-60
2022/11/12 10:14:37;;;;;;;;;;;;;;;;;;5030305;28;20389;-61
2022/11/12 10:17:21;;;;;;;;;;;;;;;;;;5032450;28;19978;-59
2022/11/12 10:20:05;;;;;;;;;;;;;;;;;;5030272;28;19927;-59
2022/11/12 10:22:49;;;;;;;;;;;;;;;;;;5029729;28;19984;-60
2022/11/12 10:25:32;;;;;;;;;;;;;;;;;;5028755;28;19971;-60
2022/11/12 10:28:16;;;;;;;;;;;;;;;;;;5028616;28;20063;-60
2022/11/12 10:31:00;;;;;;;;;;;;;;;;;;5027361;28;20719;-60
2022/11/12 10:33:45;;;;;;;;;;;;;;;;;;5026445;28;19932;-61
2022/11/12 10:36:28;;;;;;;;;;;;;;;;;;5031566;28;20387;-60
2022/11/12 10:39:12;;;;;;;;;;;;;;;;;;5028401;28;19924;-60
2022/11/12 10:41:56;;;;;;;;;;;;;;;;;;5026882;28;19967;-59
2022/11/12 10:44:42;;;;;;;;;;;;;;;;;;5027009;28;19991;-60
2022/11/12 10:47:25;;;;;;;;;;;;;;;;;;5027777;28;19924;-58
2022/11/12 10:50:09;;;;;;;;;;;;;;;;;;5031494;28;19967;-59
2022/11/12 10:52:53;;;;;;;;;;;;;;;;;;5032479;28;19928;-59
2022/11/12 10:55:37;;;;;;;;;;;;;;;;;;5027929;28;20285;-59
2022/11/12 10:58:21;;;;;;;;;;;;;;;;;;5027076;28;19932;-59
2022/11/12 11:01:06;;;;;;;;;;;;;;;;;;5023196;28;19951;-59
2022/11/12 11:03:49;;;;;;;;;;;;;;;;;;5027064;28;20416;-59
2022/11/12 11:06:33;;;;;;;;;;;;;;;;;;5027553;28;20059;-59
2022/11/12 11:09:20;;;;;;;;;;;;;;;;;;5025917;28;19974;-60
2022/11/12 11:12:04;;;;;;;;;;;;;;;;;;5027540;28;19974;-59
2022/11/12 11:14:47;;;;;;;;;;;;;;;;;;5024496;28;19924;-60
2022/11/12 11:17:31;;;;;;;;;;;;;;;;;;5027677;28;19939;-61
2022/11/12 11:20:16;;;;;;;;;;;;;;;;;;5026994;28;19981;-61
2022/11/12 11:22:59;;;;;;;;;;;;;;;;;;5024694;28;20007;-61
2022/11/12 11:25:43;;;;;;;;;;;;;;;;;;5026187;28;19927;-60
2022/11/12 11:28:27;;;;;;;;;;;;;;;;;;5027630;28;19920;-61
2022/11/12 11:31:11;;;;;;;;;;;;;;;;;;5026746;28;19920;-60
2022/11/12 11:33:55;;;;;;;;;;;;;;;;;;5027186;28;19936;-60
2022/11/12 11:36:39;;;;;;;;;;;;;;;;;;5028981;28;19964;-61
2022/11/12 11:39:23;;;;;;;;;;;;;;;;;;5026777;28;19983;-61
2022/11/12 11:42:07;;;;;;;;;;;;;;;;;;5027846;28;20452;-61
2022/11/12 11:44:51;;;;;;;;;;;;;;;;;;5024665;28;20289;-62
2022/11/12 11:47:35;;;;;;;;;;;;;;;;;;5024695;28;20286;-62
2022/11/12 11:50:19;;;;;;;;;;;;;;;;;;5025745;28;19924;-61
2022/11/12 11:53:03;;;;;;;;;;;;;;;;;;5027162;28;19924;-62
2022/11/12 11:55:47;;;;;;;;;;;;;;;;;;5026986;28;19924;-61
2022/11/12 11:58:31;;;;;;;;;;;;;;;;;;5025601;28;19927;-61
2022/11/12 12:01:15;;;;;;;;;;;;;;;;;;5029176;28;19943;-61
2022/11/12 12:03:59;;;;;;;;;;;;;;;;;;5029130;28;20392;-61
2022/11/12 12:06:43;;;;;;;;;;;;;;;;;;5028570;28;20759;-60
2022/11/12 12:09:27;;;;;;;;;;;;;;;;;;5030903;28;20000;-60
2022/11/12 12:12:11;;;;;;;;;;;;;;;;;;5027529;28;20020;-62
2022/11/12 12:14:55;;;;;;;;;;;;;;;;;;5031371;28;20717;-61
2022/11/12 12:17:39;;;;;;;;;;;;;;;;;;5031942;28;19924;-61
2022/11/12 12:20:23;;;;;;;;;;;;;;;;;;5026724;28;20013;-61
2022/11/12 12:23:07;;;;;;;;;;;;;;;;;;5032012;28;19927;-61
2022/11/12 12:25:51;;;;;;;;;;;;;;;;;;5029801;28;20286;-61
2022/11/12 12:28:35;;;;;;;;;;;;;;;;;;5029064;28;19924;-61
2022/11/12 12:31:19;;;;;;;;;;;;;;;;;;5029480;28;19924;-61
2022/11/12 12:34:03;;;;;;;;;;;;;;;;;;5030630;28;19940;-60
2022/11/12 12:36:47;;;;;;;;;;;;;;;;;;5031524;28;20404;-61
2022/11/12 12:39:31;;;;;;;;;;;;;;;;;;5031306;28;20014;-60
2022/11/12 12:42:17;;;;;;;;;;;;;;;;;;5027208;28;19963;-60
2022/11/12 12:45:02;;;;;;;;;;;;;;;;;;5032315;28;19994;-60
2022/11/12 12:47:45;;;;;;;;;;;;;;;;;;5034120;28;19923;-61
2022/11/12 12:50:29;;;;;;;;;;;;;;;;;;5032018;28;20726;-60
2022/11/12 12:53:13;;;;;;;;;;;;;;;;;;5027881;28;20372;-60
2022/11/12 12:55:57;;;;;;;;;;;;;;;;;;5029527;28;19924;-60
2022/11/12 12:58:41;;;;;;;;;;;;;;;;;;5032520;28;19967;-60
2022/11/12 13:01:25;;;;;;;;;;;;;;;;;;5029541;28;20008;-61
2022/11/12 13:04:10;;;;;;;;;;;;;;;;;;5027318;28;19924;-61
2022/11/12 13:06:54;;;;;;;;;;;;;;;;;;5029095;28;19995;-61
2022/11/12 13:09:38;;;;;;;;;;;;;;;;;;5031766;28;20697;-61
2022/11/12 13:12:22;;;;;;;;;;;;;;;;;;5033813;28;20274;-61
2022/11/12 13:15:06;;;;;;;;;;;;;;;;;;5029954;28;20562;-62
2022/11/12 13:17:50;;;;;;;;;;;;;;;;;;5028553;28;19923;-61
2022/11/12 13:20:34;;;;;;;;;;;;;;;;;;5031234;28;19928;-61
2022/11/12 13:23:18;;;;;;;;;;;;;;;;;;5026488;28;19982;-61
2022/11/12 13:26:02;;;;;;;;;;;;;;;;;;5029621;28;20455;-62
2022/11/12 13:28:46;;;;;;;;;;;;;;;;;;5026532;28;19977;-61
2022/11/12 13:31:32;;;;;;;;;;;;;;;;;;5027401;28;20392;-61
2022/11/12 13:34:16;;;;;;;;;;;;;;;;;;5026601;28;20393;-62
2022/11/12 13:37:00;;;;;;;;;;;;;;;;;;5025423;28;20353;-61
2022/11/12 13:39:44;;;;;;;;;;;;;;;;;;5018521;28;20353;-61
2022/11/12 13:45:31;;;;;;;;;;;;;;;;;;5026361;28;19928;-61
2022/11/12 13:48:15;;;;;;;;;;;;;;;;;;5026568;28;20024;-61
2022/11/12 13:50:59;;;;;;;;;;;;;;;;;;5021641;28;20051;-60
2022/11/12 13:53:43;;;;;;;;;;;;;;;;;;5028216;28;20114;-60
2022/11/12 13:56:27;;;;;;;;;;;;;;;;;;5025123;28;19925;-60
2022/11/12 13:59:11;;;;;;;;;;;;;;;;;;5028980;28;19979;-61
2022/11/12 14:01:55;;;;;;;;;;;;;;;;;;5024659;28;20518;-61
2022/11/12 14:04:39;;;;;;;;;;;;;;;;;;5023884;28;20134;-60
2022/11/12 14:07:23;;;;;;;;;;;;;;;;;;5029799;28;19973;-61
2022/11/12 14:10:07;;;;;;;;;;;;;;;;;;5028277;28;19924;-60
2022/11/12 14:12:51;;;;;;;;;;;;;;;;;;5031090;28;19931;-60
2022/11/12 14:15:35;;;;;;;;;;;;;;;;;;5027846;28;19919;-61
2022/11/12 14:18:19;;;;;;;;;;;;;;;;;;5034244;28;20514;-61
2022/11/12 14:21:03;;;;;;;;;;;;;;;;;;5029696;28;19943;-62
2022/11/12 14:23:47;;;;;;;;;;;;;;;;;;5031751;28;20013;-61
2022/11/12 14:26:31;;;;;;;;;;;;;;;;;;5035634;28;19970;-61
2022/11/12 14:29:15;;;;;;;;;;;;;;;;;;5027711;28;19924;-62
2022/11/12 14:31:59;;;;;;;;;;;;;;;;;;5031426;28;19920;-61
2022/11/12 14:34:43;;;;;;;;;;;;;;;;;;5036557;28;19928;-61
2022/11/12 14:37:27;;;;;;;;;;;;;;;;;;5036765;28;19970;-61
2022/11/12 14:40:11;;;;;;;;;;;;;;;;;;5032884;28;19971;-61
2022/11/12 14:42:55;;;;;;;;;;;;;;;;;;5038167;28;20286;-61
2022/11/12 14:45:39;;;;;;;;;;;;;;;;;;5037480;28;20328;-61
2022/11/12 14:48:23;;;;;;;;;;;;;;;;;;5029336;28;19970;-61
2022/11/12 14:51:07;;;;;;;;;;;;;;;;;;5032903;28;19924;-62
2022/11/12 14:53:51;;;;;;;;;;;;;;;;;;5036821;28;19956;-60
2022/11/12 14:56:35;;;;;;;;;;;;;;;;;;5020530;28;19959;-61
2022/11/12 14:59:19;;;;;;;;;;;;;;;;;;5028741;28;20397;-60
2022/11/12 15:02:03;;;;;;;;;;;;;;;;;;5033398;28;19994;-61
2022/11/12 15:04:47;;;;;;;;;;;;;;;;;;5029468;28;19923;-60
2022/11/12 15:07:31;;;;;;;;;;;;;;;;;;5028521;28;20515;-60
2022/11/12 15:10:15;;;;;;;;;;;;;;;;;;5034880;28;20442;-62
2022/11/12 15:12:59;;;;;;;;;;;;;;;;;;5029357;28;19927;-61
2022/11/12 15:15:43;;;;;;;;;;;;;;;;;;5028871;28;20018;-61
2022/11/12 15:18:28;;;;;;;;;;;;;;;;;;5009493;28;19971;-61
2022/11/12 15:21:12;;;;;;;;;;;;;;;;;;5011282;28;19975;-61
2022/11/12 15:23:56;;;;;;;;;;;;;;;;;;5010829;28;20042;-61
2022/11/12 15:26:40;;;;;;;;;;;;;;;;;;5018874;28;19998;-61
2022/11/12 15:29:24;;;;;;;;;;;;;;;;;;5004326;28;20029;-61
2022/11/12 15:32:08;;;;;;;;;;;;;;;;;;5009438;28;20187;-61
2022/11/12 15:34:52;;;;;;;;;;;;;;;;;;5020038;28;19963;-61
2022/11/12 15:37:36;;;;;;;;;;;;;;;;;;5007929;28;20487;-61
2022/11/12 15:40:20;;;;;;;;;;;;;;;;;;5007820;28;20045;-61
2022/11/12 15:43:04;;;;;;;;;;;;;;;;;;5014246;28;20507;-61
2022/11/12 15:45:49;;;;;;;;;;;;;;;;;;5008677;28;20078;-60
2022/11/12 15:48:33;;;;;;;;;;;;;;;;;;5010624;28;19923;-60
2022/11/12 15:51:17;;;;;;;;;;;;;;;;;;5016610;28;19928;-60
2022/11/12 15:54:00;;;;;;;;;;;;;;;;;;5013984;28;19955;-60
2022/11/12 15:56:45;;;;;;;;;;;;;;;;;;5008702;28;20593;-61
2022/11/12 15:59:28;;;;;;;;;;;;;;;;;;5021494;28;19962;-61
2022/11/12 16:02:13;;;;;;;;;;;;;;;;;;5017071;28;19982;-60
2022/11/12 16:04:56;;;;;;;;;;;;;;;;;;5013077;28;20036;-60
2022/11/12 16:07:41;;;;;;;;;;;;;;;;;;5011003;28;19927;-62
2022/11/12 16:10:25;;;;;;;;;;;;;;;;;;5015877;28;19923;-62
2022/11/12 16:13:09;;;;;;;;;;;;;;;;;;5013330;28;19927;-62
2022/11/12 16:15:53;;;;;;;;;;;;;;;;;;5009643;28;19990;-62
2022/11/12 16:18:37;;;;;;;;;;;;;;;;;;5013869;28;19927;-61
2022/11/12 16:21:21;;;;;;;;;;;;;;;;;;5009714;28;19971;-61
2022/11/12 16:24:07;;;;;;;;;;;;;;;;;;5010847;28;22223;-62
2022/11/12 16:26:50;;;;;;;;;;;;;;;;;;5020147;28;20445;-60
2022/11/12 16:29:34;;;;;;;;;;;;;;;;;;5012102;28;19927;-61
2022/11/12 16:32:18;;;;;;;;;;;;;;;;;;5009887;28;19927;-61
2022/11/12 16:35:03;;;;;;;;;;;;;;;;;;5010921;28;20102;-61
2022/11/12 16:37:46;;;;;;;;;;;;;;;;;;5009668;28;20482;-61
2022/11/12 16:40:30;;;;;;;;;;;;;;;;;;5008676;28;20313;-62
2022/11/12 16:43:14;;;;;;;;;;;;;;;;;;5017596;28;20152;-60
2022/11/12 16:45:59;;;;;;;;;;;;;;;;;;5012322;28;19978;-61
2022/11/12 16:48:42;;;;;;;;;;;;;;;;;;5012428;28;20030;-61
2022/11/12 16:51:27;;;;;;;;;;;;;;;;;;5014033;28;19995;-61
2022/11/12 16:54:11;;;;;;;;;;;;;;;;;;5008559;28;19923;-63
2022/11/12 16:56:55;;;;;;;;;;;;;;;;;;5010379;28;20158;-61
2022/11/12 16:59:39;;;;;;;;;;;;;;;;;;5017694;28;19928;-60
2022/11/12 17:02:23;;;;;;;;;;;;;;;;;;5011495;28;19974;-61
2022/11/12 17:05:07;;;;;;;;;;;;;;;;;;5013375;28;19963;-61
2022/11/12 17:07:51;;;;;;;;;;;;;;;;;;5014182;28;19923;-61
2022/11/12 17:10:35;;;;;;;;;;;;;;;;;;5011874;28;20743;-60
2022/11/12 17:13:19;;;;;;;;;;;;;;;;;;5014369;28;19963;-61
2022/11/12 17:16:03;;;;;;;;;;;;;;;;;;5015353;28;19924;-60
2022/11/12 17:18:47;;;;;;;;;;;;;;;;;;5015352;28;20780;-61
2022/11/12 17:21:31;;;;;;;;;;;;;;;;;;5010772;28;19927;-61
2022/11/12 17:24:15;;;;;;;;;;;;;;;;;;5015417;28;19963;-61
2022/11/12 17:26:59;;;;;;;;;;;;;;;;;;5018327;28;20346;-61
2022/11/12 17:29:43;;;;;;;;;;;;;;;;;;5012987;28;20752;-62
2022/11/12 17:32:27;;;;;;;;;;;;;;;;;;5010930;28;19970;-62
2022/11/12 17:35:11;;;;;;;;;;;;;;;;;;5014757;28;19928;-61
2022/11/12 17:37:55;;;;;;;;;;;;;;;;;;5009820;28;19963;-61
2022/11/12 17:40:39;;;;;;;;;;;;;;;;;;5007505;28;20081;-61
2022/11/12 17:43:23;;;;;;;;;;;;;;;;;;5019935;28;19924;-61
2022/11/12 17:46:07;;;;;;;;;;;;;;;;;;5012255;28;19951;-61
2022/11/12 17:48:51;;;;;;;;;;;;;;;;;;5004707;28;20067;-62
2022/11/12 17:51:35;;;;;;;;;;;;;;;;;;5019820;28;19925;-62
2022/11/12 17:54:19;;;;;;;;;;;;;;;;;;5009516;28;20839;-62
2022/11/12 17:57:03;;;;;;;;;;;;;;;;;;5013391;28;20671;-61
2022/11/12 17:59:47;;;;;;;;;;;;;;;;;;5016543;28;19944;-62
2022/11/12 18:02:31;;;;;;;;;;;;;;;;;;5009107;28;19974;-61
2022/11/12 18:05:15;;;;;;;;;;;;;;;;;;5010716;28;20821;-61
2022/11/12 18:07:59;;;;;;;;;;;;;;;;;;5019737;28;19928;-62
2022/11/12 18:10:44;;;;;;;;;;;;;;;;;;5011037;28;20775;-61
2022/11/12 18:13:28;;;;;;;;;;;;;;;;;;5008316;28;19986;-61
2022/11/12 18:16:12;;;;;;;;;;;;;;;;;;5013746;28;19947;-62
2022/11/12 18:18:56;;;;;;;;;;;;;;;;;;5011131;28;19940;-62
2022/11/12 18:21:40;;;;;;;;;;;;;;;;;;5005588;28;19927;-62
2022/11/12 18:24:24;;;;;;;;;;;;;;;;;;5010629;28;19924;-62
2022/11/12 18:27:08;;;;;;;;;;;;;;;;;;5008268;28;19923;-62
2022/11/12 18:29:52;;;;;;;;;;;;;;;;;;5007154;28;19977;-62
2022/11/12 18:32:38;;;;;;;;;;;;;;;;;;5000598;28;19982;-60
2022/11/12 18:35:21;;;;;;;;;;;;;;;;;;5006707;28;19987;-62
2022/11/12 18:38:05;;;;;;;;;;;;;;;;;;5013070;28;19924;-62
2022/11/12 18:40:49;;;;;;;;;;;;;;;;;;5011129;28;20018;-61
2022/11/12 18:43:33;;;;;;;;;;;;;;;;;;5009882;28;19924;-61
2022/11/12 18:46:18;;;;;;;;;;;;;;;;;;5010633;28;19924;-62
2022/11/12 18:49:01;;;;;;;;;;;;;;;;;;5010185;28;19924;-62
2022/11/12 18:51:46;;;;;;;;;;;;;;;;;;5013813;28;20762;-61
2022/11/12 18:54:30;;;;;;;;;;;;;;;;;;5008396;28;20820;-62
2022/11/12 18:57:14;;;;;;;;;;;;;;;;;;5010996;28;19924;-61
2022/11/12 18:59:58;;;;;;;;;;;;;;;;;;5011754;28;19931;-61
2022/11/12 19:02:42;;;;;;;;;;;;;;;;;;5010408;28;19995;-61
2022/11/12 19:05:26;;;;;;;;;;;;;;;;;;5009970;28;19971;-61
2022/11/12 19:08:10;;;;;;;;;;;;;;;;;;5006619;28;20185;-61
2022/11/12 19:10:54;;;;;;;;;;;;;;;;;;5008998;28;19975;-60